Aérodrome :
LOGIN :

S'inscrire | Disclaimer

   EN    FR    IT 

 










Légende :    VFR   VFR Marginal   IFR   IFR Intensif   IFR Très Intensif
Visi : 
Plafond : 
>= 8 km
>= 3000ft
5 à 8 km
1000 à 3000 ft
1500m à 5 km
500 à 1000 ft
800 à 1500m
200 à 500 ft
< 800m
< 200 ft
Symboles :   Orages  Brouillard  Fortes neiges  Fortes précipitations  Vent > 20 kt
SIGMETs :   Divers  Orages  Givrage  Turbulence  Onde Orograph.  Cendres Volcan.






- Altitude de l'aérodrome : 681 ft
- Code IATA : LBA


EGNM - Leeds Bradford

DERNIER METAR :
  • 281320Z 24017G29KT 9999 SCT015 SCT029 05/01 Q0989

METARs EXPIRÉS :
  • 281250Z 24018G29KT 9999 SCT014 SCT030 05/01 Q0989
  • 281220Z 23010KT 200V260 9999 -SHRASN SCT010 SCT018 04/02 Q0989
  • 281150Z 23010KT 200V260 9999 -SHRASN SCT008 SCT012 02/01 Q0989
  • 281120Z 22012KT 9999 -SHRASN SCT007 SCT012 02/01 Q0989
  • 281050Z 23011KT 210V270 9000 -SHRASN SCT006 SCT012 02/01 Q0989

TAF TAF EGNM
Valide du 28 à 12h jusqu'au 29 à 12h UTC


281101Z 2812/2912 24015KT 9999 SCT014
TEMPO 2812/2912 26018G30KT
TEMPO 2812/2912 7000 SHRA
PROB40
TEMPO 2812/2815 4000 SHSN BKN004
PROB30
TEMPO 2821/2909 4000 SHSN BKN004
ATIS : +44 113 250 9696 (x2489)



MET'MAP, la Météo Aéronautique d'un coup d'oeil ! - Copyright ORBIFLY Décembre 2007 - Disclaimer

ORBIFLY MET'MAP TEAM :

Programmation & Développement : Alexandra Zaïnal
Sur une idée originale de : Baudouin d'Aumeries
Assistance à la programmation : Marc-Olivier Méhu
Soutien technique & logistique : Manuel Goepfert

Contact : metmap@orbifly.com




SOURCES & CREDITS :

   NOAA